createdAt,value
2023-07-07T00:00:22.424Z,14.24
2023-07-07T00:01:22.208Z,14.21
2023-07-07T00:02:22.128Z,14.13
2023-07-07T00:03:21.936Z,14.17
2023-07-07T00:04:21.970Z,14.13
2023-07-07T00:05:21.790Z,14.20
2023-07-07T00:06:21.734Z,14.14
2023-07-07T00:07:21.621Z,14.13
2023-07-07T00:08:21.578Z,14.16
2023-07-07T00:09:21.461Z,14.10
2023-07-07T00:10:21.385Z,14.13
2023-07-07T00:11:21.650Z,14.16
2023-07-07T00:12:23.846Z,14.13
2023-07-07T00:13:21.223Z,14.21
2023-07-07T00:14:21.107Z,14.20
2023-07-07T00:15:21.274Z,14.29
2023-07-07T00:16:21.035Z,14.27
2023-07-07T00:19:21.241Z,14.32
2023-07-07T00:20:21.038Z,14.27
2023-07-07T00:21:20.548Z,14.24
2023-07-07T00:24:02.836Z,14.24
2023-07-07T00:25:02.762Z,14.31
2023-07-07T00:26:02.683Z,14.24
2023-07-07T00:27:02.602Z,14.28
2023-07-07T00:28:02.520Z,14.27
2023-07-07T00:29:02.449Z,14.21
2023-07-07T00:30:02.369Z,14.31
2023-07-07T00:31:04.945Z,14.29
2023-07-07T00:32:02.208Z,14.29
2023-07-07T00:33:02.176Z,14.34
2023-07-07T00:34:02.401Z,14.28
2023-07-07T00:35:02.054Z,14.34
2023-07-07T00:36:01.929Z,14.20
2023-07-07T00:37:01.836Z,14.23
2023-07-07T00:38:01.735Z,14.20
2023-07-07T00:39:01.709Z,14.13
2023-07-07T00:40:01.615Z,14.16
2023-07-07T00:41:01.568Z,14.16
2023-07-07T00:42:01.461Z,14.14
2023-07-07T00:43:01.342Z,14.10
2023-07-07T00:44:01.298Z,14.13
2023-07-07T00:45:01.586Z,14.16
2023-07-07T00:46:01.283Z,13.98
2023-07-07T00:47:01.534Z,13.96
2023-07-07T00:48:01.040Z,14.01
2023-07-07T00:49:00.914Z,13.98
2023-07-07T00:50:00.993Z,13.81
2023-07-07T00:51:00.773Z,13.92
2023-07-07T00:52:00.716Z,13.96
2023-07-07T00:53:00.594Z,13.84
2023-07-07T00:54:00.678Z,13.84
2023-07-07T00:55:00.612Z,13.83
2023-07-07T00:56:00.389Z,13.80
2023-07-07T00:57:00.682Z,13.91
2023-07-07T00:58:00.601Z,13.83
2023-07-07T00:59:00.118Z,13.81
2023-07-07T01:00:00.008Z,13.81
2023-07-07T01:01:00.317Z,13.81
2023-07-07T01:01:59.967Z,13.81
2023-07-07T01:03:00.247Z,13.87
2023-07-07T01:04:00.256Z,13.86
2023-07-07T01:04:59.643Z,13.84
2023-07-07T01:05:59.741Z,13.96
2023-07-07T01:06:59.861Z,13.95
2023-07-07T01:07:59.408Z,13.95
2023-07-07T01:08:59.548Z,13.83
2023-07-07T01:09:59.248Z,13.83
2023-07-07T01:10:59.347Z,13.81
2023-07-07T01:11:59.293Z,13.87
2023-07-07T01:12:59.270Z,13.81
2023-07-07T01:13:59.216Z,13.73
2023-07-07T01:14:59.361Z,13.74
2023-07-07T01:15:59.223Z,13.70
2023-07-07T01:16:58.663Z,13.73
2023-07-07T01:17:58.589Z,13.74
2023-07-07T01:18:58.503Z,13.71
2023-07-07T01:19:58.421Z,13.71
2023-07-07T01:20:58.472Z,13.63
2023-07-07T01:21:58.259Z,13.65
2023-07-07T01:22:58.211Z,13.68
2023-07-07T01:23:58.097Z,13.68
2023-07-07T01:24:58.027Z,13.70
2023-07-07T01:25:57.945Z,13.68
2023-07-07T01:26:57.864Z,13.62
2023-07-07T01:28:01.616Z,13.63
2023-07-07T01:28:57.704Z,13.66
2023-07-07T01:29:57.623Z,13.58
2023-07-07T01:30:57.813Z,13.58
2023-07-07T01:31:57.688Z,13.61
2023-07-07T01:32:57.440Z,13.58
2023-07-07T01:33:57.564Z,13.53
2023-07-07T01:34:57.232Z,13.50
2023-07-07T01:35:57.149Z,13.53
2023-07-07T01:37:54.658Z,13.48
2023-07-07T01:38:54.601Z,13.45
2023-07-07T01:39:54.496Z,13.43
2023-07-07T01:40:54.439Z,13.48
2023-07-07T01:41:54.335Z,13.52
2023-07-07T01:42:54.260Z,13.50
2023-07-07T01:43:54.178Z,13.50
2023-07-07T01:44:54.098Z,13.47
2023-07-07T01:45:54.042Z,13.50
2023-07-07T01:46:53.940Z,13.55
2023-07-07T01:47:53.881Z,13.58
2023-07-07T01:48:53.789Z,13.55
2023-07-07T01:49:53.699Z,13.47
2023-07-07T01:50:53.623Z,13.50
2023-07-07T01:51:53.648Z,13.48
2023-07-07T01:52:53.479Z,13.45
2023-07-07T01:53:53.404Z,13.38
2023-07-07T01:54:53.393Z,13.44
2023-07-07T01:55:53.682Z,13.44
2023-07-07T01:56:53.144Z,13.45
2023-07-07T01:57:53.070Z,13.38
2023-07-07T01:58:52.986Z,13.43
2023-07-07T01:59:52.910Z,13.36
2023-07-07T02:00:52.827Z,13.41
2023-07-07T02:01:52.773Z,13.44
2023-07-07T02:02:52.700Z,13.40
2023-07-07T02:03:52.584Z,13.41
2023-07-07T02:04:52.546Z,13.27
2023-07-07T02:05:52.475Z,13.28
2023-07-07T02:06:52.353Z,13.25
2023-07-07T02:07:52.268Z,13.28
2023-07-07T02:08:52.188Z,13.29
2023-07-07T02:09:52.118Z,13.29
2023-07-07T02:10:52.110Z,13.28
2023-07-07T02:11:51.950Z,13.29
2023-07-07T02:12:51.868Z,13.32
2023-07-07T02:13:51.837Z,13.25
2023-07-07T02:14:51.711Z,13.28
2023-07-07T02:15:51.880Z,13.28
2023-07-07T02:16:51.556Z,13.37
2023-07-07T02:17:51.529Z,13.37
2023-07-07T02:18:51.393Z,13.37
2023-07-07T02:19:51.318Z,13.37
2023-07-07T02:20:51.234Z,13.40
2023-07-07T02:21:51.155Z,13.29
2023-07-07T02:22:51.075Z,13.33
2023-07-07T02:23:50.994Z,13.36
2023-07-07T02:24:50.918Z,13.29
2023-07-07T02:25:50.834Z,13.25
2023-07-07T02:26:50.778Z,13.29
2023-07-07T02:27:50.681Z,13.27
2023-07-07T02:28:50.607Z,13.27
2023-07-07T02:29:50.525Z,13.28
2023-07-07T02:30:50.780Z,13.27
2023-07-07T02:31:50.556Z,13.29
2023-07-07T02:32:50.355Z,13.24
2023-07-07T02:33:50.411Z,13.19
2023-07-07T02:34:50.119Z,13.17
2023-07-07T02:35:50.188Z,13.27
2023-07-07T02:36:50.016Z,13.22
2023-07-07T02:37:49.891Z,13.22
2023-07-07T02:38:49.800Z,13.25
2023-07-07T02:39:49.720Z,13.27
2023-07-07T02:40:49.742Z,13.19
2023-07-07T02:41:49.562Z,13.32
2023-07-07T02:42:49.532Z,13.22
2023-07-07T02:43:49.407Z,13.24
2023-07-07T02:44:49.333Z,13.24
2023-07-07T02:45:49.243Z,13.11
2023-07-07T02:46:49.212Z,13.15
2023-07-07T02:47:49.142Z,13.07
2023-07-07T02:48:49.417Z,13.14
2023-07-07T02:49:48.922Z,13.11
2023-07-07T02:50:49.084Z,13.11
2023-07-07T02:51:49.007Z,13.21
2023-07-07T02:52:49.128Z,13.24
2023-07-07T02:54:49.269Z,13.14
2023-07-07T02:55:48.487Z,13.17
2023-07-07T02:56:48.404Z,13.19
2023-07-07T02:58:48.273Z,13.09
2023-07-07T02:59:48.163Z,13.14
2023-07-07T03:00:48.317Z,13.06
2023-07-07T03:01:48.414Z,13.04
2023-07-07T03:02:48.157Z,13.09
2023-07-07T03:03:48.611Z,13.04
2023-07-07T03:05:47.690Z,13.02
2023-07-07T03:06:47.574Z,13.02
2023-07-07T03:07:47.500Z,13.04
2023-07-07T03:08:47.413Z,13.09
2023-07-07T03:17:07.071Z,13.10
2023-07-07T03:18:06.723Z,13.09
2023-07-07T03:19:06.615Z,13.06
2023-07-07T03:20:06.541Z,13.04
2023-07-07T03:23:37.097Z,13.04
2023-07-07T03:24:37.052Z,13.03
2023-07-07T03:26:37.100Z,13.06
2023-07-07T03:28:19.258Z,13.04
2023-07-07T03:29:19.183Z,12.96
2023-07-07T03:30:19.097Z,13.03
2023-07-07T03:31:19.123Z,12.97
2023-07-07T03:32:19.043Z,13.02
2023-07-07T03:33:18.861Z,13.04
2023-07-07T03:35:18.696Z,13.07
2023-07-07T03:36:18.632Z,13.06
2023-07-07T03:37:18.535Z,13.00
2023-07-07T03:38:18.457Z,13.04
2023-07-07T03:40:46.132Z,13.02
2023-07-07T03:41:46.057Z,13.11
2023-07-07T03:42:45.974Z,13.14
2023-07-07T03:43:47.308Z,13.02
2023-07-07T03:45:45.742Z,13.07
2023-07-07T03:46:45.723Z,13.07
2023-07-07T03:47:45.688Z,13.10
2023-07-07T03:55:13.662Z,13.06
2023-07-07T04:02:13.351Z,13.10
2023-07-07T04:37:41.922Z,13.38
2023-07-07T04:38:41.770Z,13.43
2023-07-07T04:39:41.690Z,13.43
2023-07-07T04:40:41.613Z,13.40
2023-07-07T04:41:41.738Z,13.48
2023-07-07T04:42:41.455Z,13.45
2023-07-07T04:43:41.382Z,13.41
2023-07-07T04:44:41.298Z,13.41
2023-07-07T04:45:41.214Z,13.38
2023-07-07T04:46:41.159Z,13.40
2023-07-07T04:47:41.084Z,13.45
2023-07-07T04:48:41.019Z,13.44
2023-07-07T04:49:40.895Z,13.40
2023-07-07T04:50:40.824Z,13.47
2023-07-07T04:51:40.766Z,13.43
2023-07-07T04:52:40.658Z,13.56
2023-07-07T04:53:40.670Z,13.58
2023-07-07T04:54:40.498Z,13.62
2023-07-07T04:55:40.434Z,13.73
2023-07-07T04:56:40.343Z,13.73
2023-07-07T04:57:41.276Z,13.78
2023-07-07T04:58:40.198Z,13.98
2023-07-07T04:59:42.723Z,14.01
2023-07-07T05:00:40.021Z,13.99
2023-07-07T05:01:40.005Z,14.02
2023-07-07T05:02:40.272Z,14.10
2023-07-07T05:03:39.846Z,14.13
2023-07-07T05:06:37.156Z,14.11
2023-07-07T05:07:37.075Z,14.21
2023-07-07T05:08:36.999Z,14.31
2023-07-07T05:09:36.917Z,14.23
2023-07-07T05:10:36.851Z,14.29
2023-07-07T05:11:36.785Z,14.36
2023-07-07T05:12:36.672Z,14.34
2023-07-07T05:13:36.666Z,14.42
2023-07-07T05:14:36.528Z,14.49
2023-07-07T05:15:36.443Z,14.50
2023-07-07T05:16:36.534Z,14.64
2023-07-07T05:17:36.298Z,14.54
2023-07-07T05:18:36.170Z,14.64
2023-07-07T05:19:36.195Z,14.65
2023-07-07T05:20:36.014Z,14.72
2023-07-07T05:21:35.936Z,14.74
2023-07-07T05:22:35.856Z,14.72
2023-07-07T05:23:35.842Z,14.78
2023-07-07T05:24:35.752Z,14.72
2023-07-07T05:25:35.674Z,14.88
2023-07-07T05:26:35.543Z,14.83
2023-07-07T05:27:35.466Z,14.90
2023-07-07T05:28:35.387Z,14.93
2023-07-07T05:29:35.396Z,15.06
2023-07-07T05:30:35.231Z,15.09
2023-07-07T05:31:35.189Z,15.15
2023-07-07T05:32:35.257Z,15.20
2023-07-07T05:33:35.296Z,15.26
2023-07-07T05:34:34.918Z,15.26
2023-07-07T05:35:34.862Z,15.23
2023-07-07T05:36:34.777Z,15.38
2023-07-07T05:37:34.686Z,15.26
2023-07-07T05:38:34.636Z,15.45
2023-07-07T05:39:34.530Z,15.46
2023-07-07T05:40:34.448Z,15.55
2023-07-07T05:41:34.395Z,15.59
2023-07-07T05:42:34.293Z,15.66
2023-07-07T05:43:34.217Z,15.73
2023-07-07T05:44:34.145Z,15.67
2023-07-07T05:45:34.062Z,15.68
2023-07-07T05:46:34.380Z,15.71
2023-07-07T05:47:33.933Z,15.81
2023-07-07T05:48:33.839Z,15.79
2023-07-07T05:49:33.761Z,15.79
2023-07-07T05:50:33.673Z,15.86
2023-07-07T05:51:36.993Z,15.99
2023-07-07T05:52:33.516Z,16.03
2023-07-07T05:53:33.447Z,16.08
2023-07-07T05:54:33.470Z,16.08
2023-07-07T05:55:33.286Z,16.07
2023-07-07T05:57:15.914Z,16.22
2023-07-07T05:58:15.615Z,16.30
2023-07-07T05:59:15.537Z,16.27
2023-07-07T06:00:15.464Z,16.42
2023-07-07T06:01:15.860Z,16.42
2023-07-07T06:02:15.306Z,16.45
2023-07-07T06:03:15.240Z,16.53
2023-07-07T06:04:15.221Z,16.66
2023-07-07T06:05:15.073Z,16.66
2023-07-07T06:06:15.019Z,16.59
2023-07-07T06:07:14.934Z,16.62
2023-07-07T06:08:14.847Z,16.74
2023-07-07T06:09:14.764Z,16.82
2023-07-07T06:10:14.695Z,16.82
2023-07-07T06:11:14.614Z,16.90
2023-07-07T06:12:14.548Z,16.85
2023-07-07T06:13:14.479Z,17.03
2023-07-07T06:14:14.381Z,17.18
2023-07-07T06:15:14.304Z,17.10
2023-07-07T06:16:14.254Z,17.29
2023-07-07T06:17:14.150Z,17.30
2023-07-07T06:18:14.115Z,17.26
2023-07-07T06:19:14.003Z,17.40
2023-07-07T06:20:13.946Z,17.54
2023-07-07T06:22:31.357Z,17.54
2023-07-07T06:23:31.312Z,17.67
2023-07-07T06:24:31.348Z,17.73
2023-07-07T06:25:31.131Z,17.76
2023-07-07T06:26:31.046Z,17.79
2023-07-07T06:27:30.973Z,17.94
2023-07-07T06:28:30.930Z,18.02
2023-07-07T06:29:30.823Z,18.14
2023-07-07T06:30:30.756Z,18.34
2023-07-07T06:31:30.741Z,18.37
2023-07-07T06:32:30.643Z,18.49
2023-07-07T06:34:30.437Z,18.58
2023-07-07T06:35:33.800Z,18.62
2023-07-07T06:36:30.288Z,18.68
2023-07-07T06:37:30.213Z,18.77
2023-07-07T06:38:30.747Z,18.73
2023-07-07T06:39:30.114Z,18.95
2023-07-07T06:40:29.986Z,19.13
2023-07-07T06:41:29.907Z,19.14
2023-07-07T06:42:29.834Z,19.28
2023-07-07T06:43:29.757Z,19.23
2023-07-07T06:44:29.700Z,19.38
2023-07-07T06:45:29.656Z,19.39
2023-07-07T06:46:29.570Z,19.40
2023-07-07T06:47:29.539Z,19.43
2023-07-07T06:48:29.431Z,19.54
2023-07-07T06:49:29.312Z,19.45
2023-07-07T06:50:29.238Z,19.63
2023-07-07T06:51:29.151Z,19.71
2023-07-07T06:52:29.087Z,19.75
2023-07-07T06:53:29.021Z,19.91
2023-07-07T06:54:29.275Z,20.03
2023-07-07T06:55:28.855Z,20.06
2023-07-07T06:56:28.778Z,20.13
2023-07-07T06:57:28.700Z,20.15
2023-07-07T06:58:28.806Z,20.18
2023-07-07T06:59:28.551Z,20.20
2023-07-07T07:00:28.542Z,20.30
2023-07-07T07:01:28.466Z,20.59
2023-07-07T07:02:28.334Z,20.68
2023-07-07T07:03:28.313Z,20.80
2023-07-07T07:04:28.176Z,20.87
2023-07-07T07:05:28.103Z,20.91
2023-07-07T07:06:28.028Z,21.11
2023-07-07T07:07:27.956Z,21.14
2023-07-07T07:08:27.889Z,21.30
2023-07-07T07:09:27.918Z,21.36
2023-07-07T07:10:27.732Z,21.45
2023-07-07T07:11:27.666Z,21.53
2023-07-07T07:12:27.583Z,21.66
2023-07-07T07:13:27.524Z,21.78
2023-07-07T07:15:09.944Z,21.89
2023-07-07T07:16:10.081Z,21.97
2023-07-07T07:17:09.788Z,22.12
2023-07-07T07:18:09.957Z,22.10
2023-07-07T07:19:09.623Z,22.15
2023-07-07T07:20:09.589Z,22.19
2023-07-07T07:21:09.474Z,22.24
2023-07-07T07:22:09.398Z,22.28
2023-07-07T07:23:09.337Z,22.31
2023-07-07T07:24:09.248Z,22.44
2023-07-07T07:25:09.183Z,22.42
2023-07-07T07:26:09.136Z,22.49
2023-07-07T07:27:09.378Z,22.41
2023-07-07T07:28:08.951Z,22.56
2023-07-07T07:29:08.895Z,22.69
2023-07-07T07:30:08.818Z,22.83
2023-07-07T07:31:08.769Z,22.93
2023-07-07T07:32:08.684Z,22.93
2023-07-07T07:33:08.615Z,23.02
2023-07-07T07:34:08.509Z,22.94
2023-07-07T07:35:08.434Z,23.08
2023-07-07T07:36:08.361Z,23.09
2023-07-07T07:40:25.937Z,23.22
2023-07-07T07:41:25.578Z,23.27
2023-07-07T07:42:25.507Z,23.38
2023-07-07T07:43:25.432Z,23.35
2023-07-07T07:44:25.359Z,23.42
2023-07-07T07:45:25.294Z,23.50
2023-07-07T07:46:25.568Z,23.40
2023-07-07T07:47:25.289Z,23.49
2023-07-07T07:48:25.105Z,23.60
2023-07-07T07:49:24.996Z,23.63
2023-07-07T07:50:25.004Z,23.71
2023-07-07T07:51:36.385Z,23.70
2023-07-07T07:52:24.776Z,23.85
2023-07-07T07:53:24.705Z,23.79
2023-07-07T07:54:24.642Z,24.05
2023-07-07T07:55:24.561Z,24.04
2023-07-07T07:56:24.686Z,24.08
2023-07-07T07:57:24.413Z,24.17
2023-07-07T07:58:24.335Z,24.15
2023-07-07T07:59:24.328Z,24.20
2023-07-07T08:00:24.350Z,24.23
2023-07-07T08:01:24.165Z,24.30
2023-07-07T08:02:24.073Z,24.42
2023-07-07T08:03:24.328Z,24.34
2023-07-07T08:04:23.909Z,24.32
2023-07-07T08:05:23.829Z,24.25
2023-07-07T08:06:23.759Z,24.32
2023-07-07T08:07:23.693Z,24.44
2023-07-07T08:08:23.615Z,24.54
2023-07-07T08:09:23.539Z,24.48
2023-07-07T08:10:23.577Z,24.42
2023-07-07T08:11:23.392Z,24.42
2023-07-07T08:12:23.320Z,24.54
2023-07-07T08:13:38.970Z,24.57
2023-07-07T08:14:23.256Z,24.44
2023-07-07T08:15:23.105Z,24.59
2023-07-07T08:16:23.072Z,24.66
2023-07-07T08:17:22.977Z,24.56
2023-07-07T08:18:22.882Z,24.69
2023-07-07T08:19:22.835Z,24.63
2023-07-07T08:20:22.951Z,24.88
2023-07-07T08:21:22.672Z,24.75
2023-07-07T08:22:22.592Z,24.94
2023-07-07T08:23:22.559Z,25.02
2023-07-07T08:24:22.454Z,25.13
2023-07-07T08:25:22.419Z,25.09
2023-07-07T08:28:22.155Z,25.25
2023-07-07T08:29:25.324Z,25.32
2023-07-07T08:30:22.008Z,25.35
2023-07-07T08:31:21.967Z,25.30
2023-07-07T08:32:21.945Z,25.31
2023-07-07T08:33:21.790Z,25.27
2023-07-07T08:34:21.722Z,25.31
2023-07-07T08:35:21.688Z,25.32
2023-07-07T08:36:21.959Z,25.34
2023-07-07T08:37:21.605Z,25.42
2023-07-07T08:38:21.435Z,25.37
2023-07-07T08:39:23.521Z,25.45
2023-07-07T08:40:21.458Z,25.40
2023-07-07T08:41:21.441Z,25.40
2023-07-07T08:42:21.150Z,25.50
2023-07-07T08:43:21.072Z,25.56
2023-07-07T08:44:21.013Z,25.57
2023-07-07T08:45:20.943Z,25.62
2023-07-07T08:46:20.932Z,25.53
2023-07-07T08:47:20.812Z,25.57
2023-07-07T08:48:20.714Z,25.47
2023-07-07T08:49:20.660Z,25.60
2023-07-07T08:51:20.512Z,25.65
2023-07-07T08:52:20.457Z,25.75
2023-07-07T08:53:20.383Z,25.87
2023-07-07T08:54:20.360Z,25.92
2023-07-07T08:55:20.218Z,25.89
2023-07-07T08:56:20.336Z,25.90
2023-07-07T08:57:20.105Z,25.92
2023-07-07T08:58:29.203Z,26.07
2023-07-07T09:00:20.874Z,25.94
2023-07-07T09:07:22.044Z,26.05
2023-07-07T09:08:19.469Z,26.02
2023-07-07T09:09:19.229Z,26.24
2023-07-07T09:10:19.131Z,26.35
2023-07-07T09:11:19.063Z,26.34
2023-07-07T09:12:18.992Z,26.45
2023-07-07T09:13:19.013Z,26.34
2023-07-07T09:14:18.852Z,26.45
2023-07-07T09:15:18.772Z,26.34
2023-07-07T09:16:18.726Z,26.28
2023-07-07T09:17:18.676Z,26.30
2023-07-07T09:18:18.560Z,26.34
2023-07-07T09:19:18.484Z,26.38
2023-07-07T09:20:18.415Z,26.45
2023-07-07T09:21:18.394Z,26.65
2023-07-07T09:22:18.272Z,26.71
2023-07-07T09:23:18.228Z,26.62
2023-07-07T09:24:18.133Z,26.67
2023-07-07T09:25:18.056Z,26.67
2023-07-07T09:26:17.982Z,26.65
2023-07-07T09:27:17.913Z,26.76
2023-07-07T09:28:17.860Z,26.72
2023-07-07T09:29:17.773Z,26.67
2023-07-07T09:30:17.698Z,26.64
2023-07-07T09:31:17.645Z,26.65
2023-07-07T09:32:17.559Z,26.76
2023-07-07T09:33:17.536Z,26.71
2023-07-07T09:34:17.419Z,26.87
2023-07-07T09:35:17.382Z,26.87
2023-07-07T09:36:17.314Z,26.94
2023-07-07T09:37:17.257Z,26.97
2023-07-07T09:38:17.169Z,26.98
2023-07-07T09:39:17.356Z,26.98
2023-07-07T09:43:17.237Z,26.90
2023-07-07T09:47:16.543Z,26.99
2023-07-07T09:50:16.330Z,27.34
2023-07-07T09:51:16.247Z,27.38
2023-07-07T09:52:16.186Z,27.45
2023-07-07T09:53:23.577Z,27.42
2023-07-07T09:54:16.054Z,27.36
2023-07-07T09:55:15.968Z,27.35
2023-07-07T09:56:15.865Z,27.34
2023-07-07T09:57:15.788Z,27.36
2023-07-07T09:58:15.724Z,27.51
2023-07-07T09:59:15.647Z,27.62
2023-07-07T10:00:15.593Z,27.70
2023-07-07T10:01:15.530Z,27.64
2023-07-07T10:02:15.451Z,27.46
2023-07-07T10:03:15.530Z,27.50
2023-07-07T10:04:15.301Z,27.50
2023-07-07T10:05:15.219Z,27.61
2023-07-07T10:06:15.176Z,27.67
2023-07-07T10:07:15.178Z,27.82
2023-07-07T10:08:15.011Z,27.84
2023-07-07T10:09:14.936Z,27.94
2023-07-07T10:10:14.932Z,27.91
2023-07-07T10:11:50.543Z,27.97
2023-07-07T10:12:23.064Z,28.01
2023-07-07T10:13:14.666Z,27.92
2023-07-07T10:14:14.586Z,27.98
2023-07-07T10:15:14.520Z,28.07
2023-07-07T10:16:14.482Z,28.06
2023-07-07T10:17:14.372Z,28.04
2023-07-07T10:18:14.360Z,27.89
2023-07-07T10:19:14.247Z,27.87
2023-07-07T10:20:14.165Z,27.76
2023-07-07T10:21:14.094Z,27.67
2023-07-07T10:22:14.027Z,27.79
2023-07-07T10:23:13.963Z,27.88
2023-07-07T10:53:47.338Z,28.69
2023-07-07T10:54:47.271Z,28.69
2023-07-07T10:55:47.198Z,28.80
2023-07-07T10:56:48.811Z,28.68
2023-07-07T10:57:47.063Z,28.84
2023-07-07T10:58:48.383Z,28.81
2023-07-07T10:59:46.930Z,28.80
2023-07-07T11:00:46.865Z,28.76
2023-07-07T11:01:47.496Z,28.90
2023-07-07T11:02:46.887Z,28.88
2023-07-07T11:03:46.789Z,28.96
2023-07-07T11:04:47.003Z,28.88
2023-07-07T11:07:24.027Z,29.07
2023-07-07T11:08:23.976Z,29.16
2023-07-07T11:09:23.885Z,29.26
2023-07-07T11:10:23.820Z,29.29
2023-07-07T11:11:23.751Z,29.23
2023-07-07T11:12:23.678Z,29.23
2023-07-07T11:13:26.245Z,29.25
2023-07-07T11:14:23.546Z,29.28
2023-07-07T11:15:23.471Z,29.25
2023-07-07T11:16:23.459Z,29.32
2023-07-07T11:17:23.695Z,29.50
2023-07-07T11:22:32.544Z,29.47
2023-07-07T11:24:54.942Z,29.38
2023-07-07T11:25:31.925Z,29.41
2023-07-07T11:26:31.824Z,29.43
2023-07-07T11:27:31.818Z,29.51
2023-07-07T11:28:33.781Z,29.56
2023-07-07T11:29:31.654Z,29.65
2023-07-07T11:30:31.599Z,29.84
2023-07-07T11:31:31.582Z,29.90
2023-07-07T11:32:31.434Z,30.02
2023-07-07T11:33:31.338Z,30.05
2023-07-07T11:34:32.917Z,30.10
2023-07-07T11:35:31.207Z,30.19
2023-07-07T11:36:33.974Z,30.27
2023-07-07T11:37:31.071Z,30.26
2023-07-07T11:38:31.173Z,30.39
2023-07-07T11:39:30.945Z,30.52
2023-07-07T11:41:18.394Z,30.77
2023-07-07T11:42:20.921Z,31.02
2023-07-07T11:44:10.735Z,31.34
2023-07-07T11:48:38.294Z,32.13
2023-07-07T11:49:38.181Z,32.46
2023-07-07T11:50:38.317Z,32.62
2023-07-07T11:51:38.051Z,32.77
2023-07-07T11:52:37.985Z,32.75
2023-07-07T11:53:37.921Z,32.98
2023-07-07T11:54:37.865Z,33.04
2023-07-07T11:55:37.806Z,33.44
2023-07-07T11:56:37.752Z,33.19
2023-07-07T11:57:37.775Z,33.29
2023-07-07T11:58:37.609Z,32.99
2023-07-07T11:59:37.760Z,33.21
2023-07-07T12:01:37.423Z,33.26
2023-07-07T12:02:37.435Z,33.51
2023-07-07T12:03:37.505Z,33.61
2023-07-07T12:04:40.217Z,33.89
2023-07-07T12:05:37.482Z,33.98
2023-07-07T12:06:37.188Z,34.14
2023-07-07T12:07:38.074Z,33.85
2023-07-07T12:08:37.033Z,33.60
2023-07-07T12:09:36.978Z,33.60
2023-07-07T12:10:36.883Z,33.77
2023-07-07T12:11:36.826Z,33.70
2023-07-07T12:14:29.240Z,34.08
2023-07-07T12:15:29.201Z,33.71
2023-07-07T12:18:11.561Z,34.25
2023-07-07T12:19:11.525Z,34.57
2023-07-07T12:20:11.658Z,34.59
2023-07-07T12:22:11.748Z,34.92
2023-07-07T12:23:11.247Z,35.38
2023-07-07T12:24:11.440Z,35.43
2023-07-07T12:25:12.549Z,35.68
2023-07-07T12:26:11.133Z,35.77
2023-07-07T12:27:11.025Z,35.73
2023-07-07T12:28:10.970Z,35.98
2023-07-07T12:29:11.154Z,35.76
2023-07-07T12:30:13.539Z,35.82
2023-07-07T12:31:11.035Z,35.41
2023-07-07T12:32:10.735Z,35.35
2023-07-07T12:33:10.717Z,35.13
2023-07-07T12:34:10.638Z,34.26
2023-07-07T12:35:10.571Z,33.98
2023-07-07T12:36:10.516Z,34.14
2023-07-07T12:37:10.454Z,33.89
2023-07-07T12:38:10.397Z,34.26
2023-07-07T12:39:10.340Z,34.73
2023-07-07T12:40:10.401Z,35.09
2023-07-07T12:41:10.227Z,35.16
2023-07-07T12:42:10.169Z,35.50
2023-07-07T12:43:11.790Z,35.61
2023-07-07T12:44:10.160Z,35.50
2023-07-07T12:45:10.001Z,35.51
2023-07-07T12:46:10.006Z,35.39
2023-07-07T12:47:10.111Z,35.42
2023-07-07T12:48:09.848Z,35.32
2023-07-07T12:49:09.777Z,34.70
2023-07-07T12:50:09.723Z,34.70
2023-07-07T12:51:09.666Z,35.19
2023-07-07T12:52:09.611Z,34.60
2023-07-07T12:53:09.555Z,34.22
2023-07-07T12:54:09.509Z,34.80
2023-07-07T12:55:09.964Z,35.16
2023-07-07T12:56:09.391Z,35.51
2023-07-07T12:57:09.330Z,35.88
2023-07-07T12:58:09.276Z,36.34
2023-07-07T12:59:09.217Z,36.48
2023-07-07T13:00:09.166Z,36.69
2023-07-07T13:01:09.174Z,36.94
2023-07-07T13:02:09.101Z,36.91
2023-07-07T13:03:09.133Z,36.63
2023-07-07T13:04:09.094Z,35.97
2023-07-07T13:05:08.905Z,36.11
2023-07-07T13:07:01.338Z,36.45
2023-07-07T13:08:01.346Z,36.64
2023-07-07T13:09:01.230Z,36.85
2023-07-07T13:10:01.175Z,36.47
2023-07-07T13:11:01.116Z,36.48
2023-07-07T13:12:01.177Z,36.36
2023-07-07T13:13:01.009Z,35.98
2023-07-07T13:14:01.075Z,35.32
2023-07-07T13:15:00.907Z,35.51
2023-07-07T13:16:04.102Z,35.79
2023-07-07T13:17:00.950Z,36.17
2023-07-07T13:18:00.806Z,36.67
2023-07-07T13:19:00.681Z,36.73
2023-07-07T13:20:00.621Z,36.91
2023-07-07T13:21:00.589Z,36.45
2023-07-07T13:22:00.529Z,35.90
2023-07-07T13:23:00.453Z,36.03
2023-07-07T13:24:00.400Z,36.33
2023-07-07T13:25:00.465Z,36.76
2023-07-07T13:26:00.453Z,36.98
2023-07-07T13:27:00.236Z,37.10
2023-07-07T13:28:00.191Z,37.03
2023-07-07T13:29:00.122Z,37.26
2023-07-07T13:30:00.108Z,37.39
2023-07-07T13:31:00.084Z,36.94
2023-07-07T13:32:00.376Z,36.97
2023-07-07T13:33:00.287Z,36.97
2023-07-07T13:33:59.884Z,36.96
2023-07-07T13:34:59.815Z,37.23
2023-07-07T13:36:00.338Z,36.76
2023-07-07T13:36:59.700Z,37.04
2023-07-07T13:37:59.633Z,37.55
2023-07-07T13:38:59.580Z,37.82
2023-07-07T13:39:59.523Z,37.96
2023-07-07T13:40:59.526Z,38.16
2023-07-07T13:41:59.417Z,37.77
2023-07-07T13:42:59.371Z,37.72
2023-07-07T13:43:59.306Z,37.47
2023-07-07T13:44:59.263Z,37.26
2023-07-07T13:45:59.478Z,37.60
2023-07-07T13:46:59.258Z,37.45
2023-07-07T13:47:59.196Z,37.61
2023-07-07T13:48:59.047Z,37.64
2023-07-07T13:49:59.016Z,36.97
2023-07-07T13:50:58.994Z,37.37
2023-07-07T13:51:58.881Z,37.34
2023-07-07T13:52:58.889Z,36.79
2023-07-07T13:53:58.766Z,37.32
2023-07-07T13:54:58.717Z,37.37
2023-07-07T13:55:58.846Z,36.97
2023-07-07T13:56:58.603Z,36.42
2023-07-07T13:57:58.799Z,36.45
2023-07-07T13:58:58.751Z,36.11
2023-07-07T13:59:58.433Z,35.95
2023-07-07T14:00:58.377Z,36.03
2023-07-07T14:01:58.349Z,36.45
2023-07-07T14:02:58.397Z,36.27
2023-07-07T14:03:58.302Z,35.73
2023-07-07T14:04:58.158Z,36.00
2023-07-07T14:05:58.345Z,36.36
2023-07-07T14:06:58.047Z,37.01
2023-07-07T14:07:58.002Z,37.53
2023-07-07T14:08:58.187Z,37.72
2023-07-07T14:09:57.887Z,38.18
2023-07-07T14:10:57.828Z,38.29
2023-07-07T14:11:58.025Z,38.44
2023-07-07T14:12:57.719Z,38.62
2023-07-07T14:13:57.709Z,38.74
2023-07-07T14:14:57.607Z,39.08
2023-07-07T14:16:01.275Z,38.47
2023-07-07T14:16:57.543Z,38.72
2023-07-07T14:17:57.477Z,38.60
2023-07-07T14:18:57.388Z,37.84
2023-07-07T14:19:57.558Z,37.74
2023-07-07T14:20:57.504Z,38.08
2023-07-07T14:21:57.249Z,37.35
2023-07-07T14:22:57.175Z,37.34
2023-07-07T14:23:57.122Z,37.64
2023-07-07T14:24:57.071Z,38.16
2023-07-07T14:25:57.195Z,38.16
2023-07-07T14:26:56.962Z,38.32
2023-07-07T14:27:56.905Z,38.01
2023-07-07T14:28:56.847Z,37.60
2023-07-07T14:29:56.791Z,37.16
2023-07-07T14:30:57.188Z,37.20
2023-07-07T14:31:56.695Z,37.50
2023-07-07T14:32:56.856Z,37.94
2023-07-07T14:33:56.580Z,37.83
2023-07-07T14:34:56.522Z,37.04
2023-07-07T14:35:56.757Z,36.48
2023-07-07T14:36:56.408Z,36.59
2023-07-07T14:37:56.374Z,36.47
2023-07-07T14:38:56.316Z,36.44
2023-07-07T14:39:56.252Z,36.47
2023-07-07T14:40:56.188Z,36.75
2023-07-07T14:41:56.138Z,36.98
2023-07-07T14:42:56.095Z,36.34
2023-07-07T14:43:56.038Z,36.45
2023-07-07T14:44:55.970Z,36.79
2023-07-07T14:45:56.050Z,37.38
2023-07-07T14:46:55.856Z,37.65
2023-07-07T14:47:55.832Z,37.58
2023-07-07T14:48:55.748Z,37.83
2023-07-07T14:49:55.693Z,37.87
2023-07-07T14:50:55.636Z,37.64
2023-07-07T14:51:55.615Z,37.58
2023-07-07T14:52:55.548Z,37.70
2023-07-07T14:53:55.528Z,37.58
2023-07-07T14:54:55.432Z,38.08
2023-07-07T14:55:55.372Z,38.30
2023-07-07T14:56:55.305Z,37.98
2023-07-07T14:57:55.254Z,36.83
2023-07-07T14:58:55.195Z,36.97
2023-07-07T14:59:55.146Z,37.37
2023-07-07T15:00:55.088Z,37.50
2023-07-07T15:01:55.105Z,37.49
2023-07-07T15:02:55.009Z,37.57
2023-07-07T15:03:54.943Z,37.76
2023-07-07T15:04:54.868Z,37.79
2023-07-07T15:05:54.809Z,37.84
2023-07-07T15:06:54.760Z,37.62
2023-07-07T15:07:54.698Z,37.00
2023-07-07T15:08:54.761Z,37.32
2023-07-07T15:09:54.607Z,37.60
2023-07-07T15:10:54.527Z,37.65
2023-07-07T15:11:54.489Z,37.77
2023-07-07T15:12:54.477Z,38.14
2023-07-07T15:13:54.441Z,38.11
2023-07-07T15:14:54.306Z,37.69
2023-07-07T15:15:54.514Z,37.67